Terminal Aerodrome Forecast
Issued by NWS

Home | Current Version | Previous Version | Text Only | Print | Product List | Glossary On
Versions: 1 2 3 4 5 6 7 8 9 10 11 12 13 14 15 16 17 18 19 20 21 22 23
000
FTUS43 KLOT 201133
TAFGYY
TAF
KGYY 201133Z 2012/2112 16010KT 6SM -SHRA VCTS SCT040CB OVC080
      TEMPO 2012/2014 32015G25KT 2SM +TSRA BKN020 OVC040CB
     FM201500 19008KT P6SM VCSH SCT040 BKN080
     FM201800 28010KT P6SM BKN040
      TEMPO 2020/2023 36012KT 3SM TSRA BKN040CB
     FM202300 02009KT P6SM VCTS SCT040CB BKN150
     FM210200 12005KT P6SM SCT150=

USA.gov is the U.S. government's official web portal to all federal, state and local government web resources and services.